Time;durP1;ratioP1;P1;durP2;ratioP2;P2;SDS_P1;SDS_P2;PMS_P1;PMS_P2;Temp;Humidity;BMP_temperature;BMP_pressure;BME280_temperature;BME280_humidity;BME280_pressure;Samples;Min_cycle;Max_cycle;Signal;HPM_P1;HPM_P2
2021/11/08 00:00:56;;;;;;;21.67;2.78;;;7.50;99.90;;;;;;5011261;28;20038;-70
2021/11/08 00:03:24;;;;;;;23.77;2.85;;;7.50;99.90;;;;;;5008531;28;20068;-70
2021/11/08 00:05:50;;;;;;;27.92;3.80;;;7.40;99.90;;;;;;5075876;28;20106;-71
2021/11/08 00:08:17;;;;;;;28.83;3.55;;;7.40;99.90;;;;;;5082829;28;20037;-70
2021/11/08 00:10:42;;;;;;;24.58;3.38;;;7.30;99.90;;;;;;5010537;28;20033;-70
2021/11/08 00:13:08;;;;;;;27.95;3.25;;;7.30;99.90;;;;;;5009722;28;20511;-71
2021/11/08 00:15:47;;;;;;;20.38;3.05;;;7.20;99.90;;;;;;5003667;28;20103;-70
2021/11/08 00:18:26;;;;;;;22.73;3.15;;;7.20;99.90;;;;;;5005717;28;20033;-70
2021/11/08 00:20:53;;;;;;;17.20;2.83;;;7.20;99.90;;;;;;5009227;28;20069;-71
2021/11/08 00:23:19;;;;;;;26.35;3.03;;;7.20;99.90;;;;;;5007042;28;20090;-71
2021/11/08 00:25:44;;;;;;;28.13;3.88;;;7.20;99.90;;;;;;5066923;28;20034;-70
2021/11/08 00:28:10;;;;;;;24.33;3.65;;;7.20;99.90;;;;;;5011010;28;20033;-70
2021/11/08 00:30:36;;;;;;;35.15;3.28;;;7.20;99.90;;;;;;5010648;28;20048;-71
2021/11/08 00:33:03;;;;;;;27.25;3.33;;;7.20;99.90;;;;;;5013683;28;20026;-71
2021/11/08 00:35:28;;;;;;;36.67;4.90;;;7.20;99.90;;;;;;5000799;28;20037;-71
2021/11/08 00:37:54;;;;;;;28.35;4.22;;;7.20;99.90;;;;;;5002136;28;20764;-71
2021/11/08 00:40:19;;;;;;;32.22;3.03;;;7.20;99.90;;;;;;5004849;28;20047;-70
2021/11/08 00:42:45;;;;;;;27.67;3.45;;;7.10;99.90;;;;;;5012784;28;20043;-71
2021/11/08 00:45:11;;;;;;;31.42;4.55;;;7.10;99.90;;;;;;4999855;28;20044;-71
2021/11/08 00:47:36;;;;;;;22.50;3.03;;;7.20;99.90;;;;;;5003130;28;20069;-71
2021/11/08 00:50:02;;;;;;;19.88;3.40;;;7.20;99.90;;;;;;5007044;28;20576;-71
2021/11/08 00:52:27;;;;;;;29.92;3.35;;;8.20;99.90;;;;;;5013107;28;20033;-71
2021/11/08 00:54:53;;;;;;;31.88;3.60;;;7.10;99.90;;;;;;5010569;28;20030;-71
2021/11/08 00:57:22;;;;;;;28.02;2.92;;;7.20;99.90;;;;;;5003968;28;20564;-71
2021/11/08 00:59:48;;;;;;;32.50;3.95;;;7.20;99.90;;;;;;5008821;28;20049;-71
2021/11/08 01:02:14;;;;;;;30.23;6.05;;;7.20;99.90;;;;;;5014424;28;20049;-71
2021/11/08 01:04:41;;;;;;;25.38;3.22;;;7.20;99.90;;;;;;5012038;28;20040;-71
2021/11/08 01:07:08;;;;;;;24.75;3.28;;;7.20;99.90;;;;;;5007550;28;20026;-71
2021/11/08 01:09:34;;;;;;;24.02;3.10;;;7.20;99.90;;;;;;5006880;28;20038;-71
2021/11/08 01:11:59;;;;;;;23.63;2.55;;;7.20;99.90;;;;;;5014504;28;20049;-71
2021/11/08 01:14:25;;;;;;;23.52;3.15;;;7.30;99.90;;;;;;5004950;28;20022;-71
2021/11/08 01:16:56;;;;;;;22.08;2.70;;;7.20;99.90;;;;;;5007062;28;20040;-71
2021/11/08 01:19:21;;;;;;;27.75;3.05;;;7.20;99.90;;;;;;5007158;28;20066;-71
2021/11/08 01:21:47;;;;;;;28.70;3.78;;;7.30;99.90;;;;;;4997583;28;20227;-71
2021/11/08 01:24:13;;;;;;;25.10;2.78;;;7.20;99.90;;;;;;5004996;28;20069;-71
2021/11/08 01:26:38;;;;;;;21.95;2.80;;;7.30;99.90;;;;;;5006832;28;20442;-71
2021/11/08 01:29:05;;;;;;;25.05;5.50;;;7.20;99.90;;;;;;5011709;28;20083;-71
2021/11/08 01:31:31;;;;;;;26.17;2.80;;;7.30;99.90;;;;;;5010102;28;20025;-71
2021/11/08 01:33:57;;;;;;;28.27;3.53;;;7.30;99.90;;;;;;5009152;28;20502;-71
2021/11/08 01:36:25;;;;;;;20.65;2.67;;;7.30;99.90;;;;;;5000205;28;20040;-70
2021/11/08 01:38:53;;;;;;;21.65;3.20;;;7.30;99.90;;;;;;5009614;28;20034;-70
2021/11/08 01:41:19;;;;;;;25.13;4.15;;;7.30;99.90;;;;;;5011492;28;20045;-70
2021/11/08 01:43:44;;;;;;;24.75;3.42;;;7.30;99.90;;;;;;5006414;28;20038;-71
2021/11/08 01:46:11;;;;;;;24.05;3.22;;;7.30;99.90;;;;;;5004212;28;20040;-71
2021/11/08 01:48:36;;;;;;;30.77;4.38;;;7.30;99.90;;;;;;5003120;28;20538;-71
2021/11/08 01:51:02;;;;;;;33.30;4.38;;;7.30;99.90;;;;;;5010653;28;20037;-71
2021/11/08 01:53:28;;;;;;;18.30;2.97;;;7.30;99.90;;;;;;5007124;28;20040;-71
2021/11/08 01:55:54;;;;;;;24.00;2.95;;;7.30;99.90;;;;;;5011889;28;20048;-71
2021/11/08 01:58:19;;;;;;;22.55;2.95;;;7.40;99.90;;;;;;5007574;28;20045;-70
2021/11/08 02:00:46;;;;;;;19.30;3.42;;;7.40;99.90;;;;;;5010160;28;20049;-71
2021/11/08 02:03:11;;;;;;;24.20;2.97;;;7.40;99.90;;;;;;5003649;28;20752;-71
2021/11/08 02:05:37;;;;;;;24.13;3.00;;;7.40;99.90;;;;;;5014349;28;20214;-70
2021/11/08 02:08:02;;;;;;;19.65;3.15;;;7.50;99.90;;;;;;5014377;28;20065;-70
2021/11/08 02:10:28;;;;;;;20.77;2.95;;;7.40;99.90;;;;;;5074806;28;20046;-71
2021/11/08 02:12:54;;;;;;;19.15;2.60;;;7.50;99.90;;;;;;5006241;28;20132;-72
2021/11/08 02:15:20;;;;;;;19.67;3.05;;;7.50;99.90;;;;;;5014802;28;20030;-71
2021/11/08 02:17:47;;;;;;;20.55;3.58;;;7.50;99.90;;;;;;5000379;28;20030;-71
2021/11/08 02:20:14;;;;;;;22.92;3.25;;;7.50;99.90;;;;;;5005618;28;20367;-72
2021/11/08 02:22:39;;;;;;;15.60;2.47;;;7.50;99.90;;;;;;5009047;28;20033;-72
2021/11/08 02:25:04;;;;;;;23.17;3.90;;;7.50;99.90;;;;;;5064028;28;20037;-72
2021/11/08 02:27:30;;;;;;;26.60;3.78;;;7.50;99.90;;;;;;5000366;28;20038;-71
2021/11/08 02:29:55;;;;;;;26.00;2.97;;;7.50;99.90;;;;;;5005208;28;20425;-70
2021/11/08 02:32:21;;;;;;;37.80;5.90;;;7.40;99.90;;;;;;5001821;28;20042;-71
2021/11/08 02:34:46;;;;;;;29.23;3.58;;;7.50;99.90;;;;;;4996455;28;20118;-70
2021/11/08 02:37:12;;;;;;;23.92;2.85;;;7.50;99.90;;;;;;5071357;28;20118;-70
2021/11/08 02:39:39;;;;;;;35.13;3.75;;;7.50;99.90;;;;;;5002811;28;20037;-70
2021/11/08 02:42:05;;;;;;;29.48;3.22;;;7.50;99.90;;;;;;5003825;28;20045;-71
2021/11/08 02:44:30;;;;;;;30.17;3.38;;;7.50;99.90;;;;;;5003780;28;20508;-70
2021/11/08 02:46:56;;;;;;;25.13;3.40;;;7.50;99.90;;;;;;5004510;28;20030;-71
2021/11/08 02:49:22;;;;;;;24.33;3.40;;;7.50;99.90;;;;;;5009020;28;20041;-72
2021/11/08 02:51:58;;;;;;;33.58;5.10;;;7.50;99.90;;;;;;4999801;28;20037;-71
2021/11/08 02:54:29;;;;;;;27.35;4.13;;;7.50;99.90;;;;;;4997628;28;20038;-70
2021/11/08 02:56:55;;;;;;;33.05;3.88;;;7.50;99.90;;;;;;5071037;28;20038;-70
2021/11/08 02:59:21;;;;;;;21.98;3.90;;;7.50;99.90;;;;;;5000594;28;20077;-71
2021/11/08 03:01:48;;;;;;;21.48;4.25;;;7.50;99.90;;;;;;5066668;28;20549;-71
2021/11/08 03:04:16;;;;;;;18.23;3.67;;;7.50;99.90;;;;;;5002889;28;20039;-70
2021/11/08 03:06:41;;;;;;;25.00;3.20;;;7.50;99.90;;;;;;5005566;28;20171;-70
2021/11/08 03:09:07;;;;;;;27.58;3.28;;;7.60;99.90;;;;;;5004820;28;20923;-71
2021/11/08 03:11:33;;;;;;;30.23;5.25;;;7.50;99.90;;;;;;4996569;28;20764;-71
2021/11/08 03:14:06;;;;;;;31.80;3.67;;;7.60;99.90;;;;;;5004698;28;20033;-70
2021/11/08 03:16:55;;;;;;;24.67;4.38;;;7.60;99.90;;;;;;5006300;28;20046;-71
2021/11/08 03:19:25;;;;;;;21.70;3.17;;;7.60;99.90;;;;;;5000322;28;20026;-71
2021/11/08 03:21:52;;;;;;;19.75;3.50;;;7.60;99.90;;;;;;5001931;28;20037;-71
2021/11/08 03:24:35;;;;;;;28.88;4.70;;;7.60;99.90;;;;;;5006562;28;20441;-71
2021/11/08 03:27:06;;;;;;;20.77;4.28;;;7.60;99.90;;;;;;5013165;28;20489;-71
2021/11/08 03:29:31;;;;;;;21.20;3.08;;;7.70;99.90;;;;;;5008169;28;20509;-71
2021/11/08 03:31:57;;;;;;;20.42;3.08;;;7.70;99.90;;;;;;5003582;28;20064;-71
2021/11/08 03:34:23;;;;;;;31.65;3.33;;;7.70;99.90;;;;;;5009496;28;20038;-72
2021/11/08 03:36:50;;;;;;;25.42;3.20;;;7.70;99.90;;;;;;5005337;28;20033;-71
2021/11/08 03:39:16;;;;;;;16.75;3.72;;;7.80;99.90;;;;;;5007034;28;20547;-71
2021/11/08 03:41:42;;;;;;;25.60;3.05;;;7.80;99.90;;;;;;5012372;28;20029;-70
2021/11/08 03:44:07;;;;;;;26.17;3.10;;;7.80;99.90;;;;;;5006224;28;20073;-71
2021/11/08 03:46:33;;;;;;;28.20;3.20;;;7.80;99.90;;;;;;5011563;28;20030;-71
2021/11/08 03:48:58;;;;;;;26.25;4.45;;;7.80;99.90;;;;;;5015287;28;20109;-70
2021/11/08 03:51:23;;;;;;;22.80;3.25;;;7.80;99.90;;;;;;5075680;28;20072;-70
2021/11/08 03:53:49;;;;;;;18.88;3.75;;;7.80;99.90;;;;;;5008773;28;20116;-70
2021/11/08 03:56:14;;;;;;;25.38;4.20;;;7.80;99.90;;;;;;5008125;28;20061;-70
2021/11/08 03:58:40;;;;;;;27.75;3.55;;;7.80;99.90;;;;;;5008758;28;20045;-70
2021/11/08 04:01:06;;;;;;;21.70;3.25;;;7.80;99.90;;;;;;5007981;28;20420;-70
2021/11/08 04:03:31;;;;;;;29.60;3.85;;;7.80;99.90;;;;;;5012392;28;20045;-70
2021/11/08 04:05:56;;;;;;;27.20;3.35;;;7.80;99.90;;;;;;5012037;28;20965;-70
2021/11/08 04:08:22;;;;;;;24.65;3.50;;;7.90;99.90;;;;;;5012254;28;20042;-71
2021/11/08 04:10:51;;;;;;;24.92;3.85;;;7.80;99.90;;;;;;5006395;28;20041;-71
2021/11/08 04:13:17;;;;;;;16.65;2.50;;;7.90;99.90;;;;;;5003902;28;20494;-70
2021/11/08 04:15:43;;;;;;;20.70;3.33;;;7.80;99.90;;;;;;5006823;28;20080;-70
2021/11/08 04:18:08;;;;;;;27.25;3.13;;;7.90;99.90;;;;;;5009069;28;20540;-70
2021/11/08 04:20:34;;;;;;;18.60;4.63;;;7.90;99.90;;;;;;5004702;28;20037;-70
2021/11/08 04:22:59;;;;;;;23.67;4.20;;;7.80;99.90;;;;;;5009489;28;20374;-71
2021/11/08 04:25:25;;;;;;;31.52;5.10;;;7.90;99.90;;;;;;5010787;28;20149;-71
2021/11/08 04:27:51;;;;;;;21.88;3.13;;;7.90;99.90;;;;;;5076083;28;20128;-70
2021/11/08 04:30:16;;;;;;;17.98;3.40;;;8.00;99.90;;;;;;5006844;28;20029;-70
2021/11/08 04:35:18;;;;;;;25.80;3.53;;;8.00;99.90;;;;;;5013449;28;20041;-71
2021/11/08 04:40:33;;;;;;;30.30;3.67;;;8.00;99.90;;;;;;5009383;28;20118;-71
2021/11/08 04:43:07;;;;;;;25.47;4.03;;;8.00;99.90;;;;;;5001382;28;20085;-70
2021/11/08 04:46:11;;;;;;;25.40;3.25;;;8.10;99.90;;;;;;5057639;28;20062;-70
2021/11/08 05:21:13;;;;;;;26.90;4.75;;;8.20;99.90;;;;;;5009686;28;20121;-70
2021/11/08 05:31:36;;;;;;;22.63;2.95;;;8.20;99.90;;;;;;5007188;28;20029;-71
2021/11/08 05:34:02;;;;;;;17.73;3.10;;;8.20;99.90;;;;;;5004264;28;20034;-71
2021/11/08 05:36:27;;;;;;;21.88;2.50;;;8.30;99.90;;;;;;5011208;28;20039;-70
2021/11/08 05:38:53;;;;;;;21.73;2.58;;;8.30;99.90;;;;;;5010028;28;20501;-70
2021/11/08 05:41:18;;;;;;;24.00;2.50;;;8.30;99.90;;;;;;5007945;28;20038;-71
2021/11/08 05:43:44;;;;;;;25.70;2.95;;;8.30;99.90;;;;;;5005774;28;20094;-71
2021/11/08 05:46:10;;;;;;;23.70;2.92;;;8.30;99.90;;;;;;5006912;28;20037;-71
2021/11/08 05:48:37;;;;;;;11.32;2.17;;;8.30;99.90;;;;;;5002895;28;20061;-71
2021/11/08 05:51:02;;;;;;;21.77;3.80;;;8.30;99.90;;;;;;5074329;28;20040;-70
2021/11/08 05:53:27;;;;;;;20.85;2.95;;;8.30;99.90;;;;;;5006019;28;20176;-70
2021/11/08 05:56:05;;;;;;;20.73;3.90;;;8.30;99.90;;;;;;5004440;28;20173;-71
2021/11/08 06:48:11;;;;;;;16.45;3.47;;;8.30;99.90;;;;;;5006948;28;20037;-71
2021/11/08 06:50:10;;;;;;;;;;;8.40;99.90;;;;;;5009444;28;20052;-71
2021/11/08 06:52:37;;;;;;;14.23;1.85;;;8.50;99.90;;;;;;5010321;28;19988;-71
2021/11/08 06:55:05;;;;;;;15.32;2.42;;;8.50;99.90;;;;;;5011772;28;20042;-71
2021/11/08 06:57:32;;;;;;;20.33;2.72;;;8.50;99.90;;;;;;5010950;28;20038;-71
2021/11/08 06:59:57;;;;;;;16.80;2.08;;;8.60;99.90;;;;;;5008039;28;20040;-71
2021/11/08 07:02:25;;;;;;;23.00;3.38;;;8.60;99.90;;;;;;5012597;28;20045;-71
2021/11/08 07:04:50;;;;;;;15.57;2.53;;;8.60;99.90;;;;;;5007517;28;20021;-70
2021/11/08 07:07:16;;;;;;;12.43;2.10;;;8.60;99.90;;;;;;5012138;28;20378;-70
2021/11/08 07:09:42;;;;;;;11.50;3.35;;;8.60;99.90;;;;;;5014128;28;20040;-70
2021/11/08 07:12:07;;;;;;;15.43;2.63;;;8.60;99.90;;;;;;5079756;28;20033;-70
2021/11/08 07:14:32;;;;;;;17.20;2.03;;;8.70;99.90;;;;;;5007993;28;20120;-70
2021/11/08 07:16:58;;;;;;;14.63;2.30;;;8.20;99.90;;;;;;5012818;28;20146;-70
2021/11/08 07:19:23;;;;;;;17.13;4.60;;;8.70;99.90;;;;;;5010972;28;20038;-71
2021/11/08 07:21:49;;;;;;;12.50;2.10;;;8.70;99.90;;;;;;5009613;28;20036;-70
2021/11/08 07:24:14;;;;;;;16.92;2.50;;;8.70;99.90;;;;;;5010850;28;20034;-71
2021/11/08 07:26:40;;;;;;;21.98;3.38;;;8.70;99.90;;;;;;5007149;28;20629;-70
2021/11/08 07:29:06;;;;;;;13.52;2.10;;;8.80;99.90;;;;;;5008685;28;20034;-71
2021/11/08 07:31:31;;;;;;;16.45;2.33;;;8.80;99.90;;;;;;5011578;28;20029;-70
2021/11/08 07:33:57;;;;;;;14.60;2.85;;;8.80;99.90;;;;;;5015343;28;20116;-70
2021/11/08 07:36:22;;;;;;;13.48;3.13;;;8.80;99.90;;;;;;5016664;28;20422;-71
2021/11/08 07:38:48;;;;;;;14.80;2.33;;;8.80;99.90;;;;;;5009560;28;20042;-71
2021/11/08 07:41:13;;;;;;;14.20;2.35;;;8.80;99.90;;;;;;5010939;28;20042;-70
2021/11/08 07:43:38;;;;;;;18.38;2.33;;;8.80;99.90;;;;;;5001573;28;20153;-70
2021/11/08 07:46:04;;;;;;;14.82;2.10;;;8.80;99.90;;;;;;5009576;28;20149;-71
2021/11/08 07:48:30;;;;;;;10.23;1.88;;;8.80;99.90;;;;;;5078679;28;20043;-71
2021/11/08 07:50:55;;;;;;;18.08;2.55;;;8.90;99.90;;;;;;5082329;28;20038;-70
2021/11/08 07:53:21;;;;;;;15.02;2.20;;;8.90;99.90;;;;;;5010657;28;20029;-71
2021/11/08 07:55:47;;;;;;;14.68;2.60;;;9.00;99.90;;;;;;5006924;28;20044;-71
2021/11/08 07:58:14;;;;;;;21.42;2.08;;;9.00;99.90;;;;;;5003963;28;20145;-70
2021/11/08 08:00:39;;;;;;;16.92;2.72;;;8.90;99.90;;;;;;5007314;28;20067;-70
2021/11/08 08:03:05;;;;;;;10.90;2.42;;;8.80;99.90;;;;;;5009554;28;20033;-71
2021/11/08 08:05:30;;;;;;;19.33;2.80;;;8.80;99.90;;;;;;5012352;28;20544;-71
2021/11/08 08:07:56;;;;;;;15.02;2.85;;;8.80;99.90;;;;;;5006940;28;20103;-71
2021/11/08 08:10:21;;;;;;;25.45;3.13;;;8.80;99.90;;;;;;5013031;28;20832;-71
2021/11/08 08:12:47;;;;;;;21.27;2.88;;;8.90;99.90;;;;;;5007762;28;20822;-71
2021/11/08 08:15:13;;;;;;;19.13;3.13;;;8.90;99.90;;;;;;5012224;28;20045;-72
2021/11/08 08:17:38;;;;;;;16.27;2.72;;;9.00;99.90;;;;;;5008524;28;20119;-71
2021/11/08 08:20:04;;;;;;;17.63;3.03;;;9.00;99.90;;;;;;5000965;28;20058;-71
2021/11/08 08:22:29;;;;;;;12.93;1.98;;;9.10;99.90;;;;;;5009232;28;20049;-70
2021/11/08 08:24:55;;;;;;;18.08;2.75;;;9.10;99.90;;;;;;5007447;28;20045;-69
2021/11/08 08:27:20;;;;;;;18.15;2.58;;;9.10;99.90;;;;;;5004226;28;20125;-69
2021/11/08 08:29:46;;;;;;;17.63;3.15;;;9.20;99.90;;;;;;5014822;28;20033;-69
2021/11/08 08:32:11;;;;;;;12.43;2.80;;;9.30;99.90;;;;;;5015134;28;20053;-68
2021/11/08 08:34:37;;;;;;;25.50;2.63;;;9.30;99.90;;;;;;5080635;28;20041;-69
2021/11/08 08:37:03;;;;;;;15.30;2.20;;;9.30;99.90;;;;;;5013407;28;20493;-68
2021/11/08 08:39:29;;;;;;;12.73;2.17;;;9.30;99.90;;;;;;5009632;28;20045;-68
2021/11/08 08:41:54;;;;;;;24.20;3.65;;;9.40;99.90;;;;;;5005909;28;20044;-69
2021/11/08 08:44:20;;;;;;;12.90;2.75;;;9.40;99.90;;;;;;5010340;28;20030;-70
2021/11/08 08:46:45;;;;;;;14.55;2.55;;;9.40;99.90;;;;;;5008033;28;20034;-68
2021/11/08 08:49:11;;;;;;;16.15;4.30;;;9.30;99.90;;;;;;5015788;28;20044;-68
2021/11/08 08:51:36;;;;;;;12.52;2.15;;;9.30;99.90;;;;;;5005440;28;20503;-68
2021/11/08 08:54:02;;;;;;;15.20;2.58;;;9.40;99.90;;;;;;5009079;28;20038;-68
2021/11/08 08:56:27;;;;;;;16.27;2.35;;;9.40;99.90;;;;;;5003370;28;20043;-68
2021/11/08 08:58:53;;;;;;;12.55;2.50;;;9.50;99.90;;;;;;5008305;28;20029;-68
2021/11/08 09:01:19;;;;;;;12.40;2.47;;;9.60;99.90;;;;;;5075328;28;20041;-68
2021/11/08 09:03:44;;;;;;;14.98;2.35;;;9.60;99.90;;;;;;5010298;28;20578;-68
2021/11/08 09:06:11;;;;;;;14.40;4.03;;;9.70;99.90;;;;;;5010792;28;20133;-68
2021/11/08 09:08:38;;;;;;;17.17;2.30;;;9.70;99.90;;;;;;5002393;28;20030;-68
2021/11/08 09:11:03;;;;;;;13.15;2.30;;;9.80;99.90;;;;;;5005984;28;20030;-68
2021/11/08 09:13:29;;;;;;;18.20;2.75;;;9.80;99.90;;;;;;5075857;28;20467;-68
2021/11/08 09:15:54;;;;;;;14.57;2.33;;;9.70;99.90;;;;;;4999065;28;20122;-68
2021/11/08 09:18:20;;;;;;;18.33;2.95;;;9.90;99.90;;;;;;5070426;28;20033;-68
2021/11/08 09:20:45;;;;;;;19.60;2.90;;;9.90;99.90;;;;;;5076304;28;20446;-68
2021/11/08 09:23:11;;;;;;;16.50;3.17;;;10.00;99.90;;;;;;5008459;28;20033;-68
2021/11/08 09:25:36;;;;;;;16.08;2.55;;;10.10;99.90;;;;;;4999763;28;20045;-68
2021/11/08 09:28:02;;;;;;;18.02;2.17;;;10.20;99.90;;;;;;5009576;28;20149;-68
2021/11/08 09:30:27;;;;;;;14.25;2.60;;;10.30;99.90;;;;;;5007024;28;20498;-68
2021/11/08 09:32:53;;;;;;;21.00;3.65;;;10.40;99.90;;;;;;5006098;28;20532;-68
2021/11/08 09:35:18;;;;;;;17.15;2.33;;;10.30;99.90;;;;;;5010308;28;20037;-68
2021/11/08 09:37:44;;;;;;;19.20;2.30;;;10.30;99.90;;;;;;5076354;28;20033;-68
2021/11/08 09:40:10;;;;;;;15.77;2.53;;;10.30;99.90;;;;;;5007433;28;20041;-68
2021/11/08 09:42:36;;;;;;;12.40;1.80;;;10.40;99.90;;;;;;5002871;28;20042;-68
2021/11/08 09:45:01;;;;;;;16.80;2.28;;;10.40;99.90;;;;;;5074027;28;20052;-68
2021/11/08 09:47:27;;;;;;;17.92;2.20;;;10.40;99.90;;;;;;5005577;28;20026;-68
2021/11/08 09:49:52;;;;;;;17.90;4.30;;;10.40;99.90;;;;;;5005306;28;20407;-68
2021/11/08 09:52:18;;;;;;;14.55;2.40;;;10.50;99.90;;;;;;5009763;28;20053;-68
2021/11/08 09:54:43;;;;;;;19.92;2.25;;;10.50;99.90;;;;;;5009044;28;20112;-68
2021/11/08 09:57:09;;;;;;;25.90;2.80;;;10.60;99.90;;;;;;5006140;28;20852;-68
2021/11/08 09:59:35;;;;;;;7.38;1.98;;;10.70;99.90;;;;;;5011159;28;20037;-68
2021/11/08 10:02:00;;;;;;;18.38;2.75;;;10.90;99.90;;;;;;5005189;28;20112;-68
2021/11/08 10:04:26;;;;;;;14.57;2.22;;;11.00;99.90;;;;;;5000530;28;20819;-68
2021/11/08 10:06:51;;;;;;;15.50;1.95;;;11.10;99.90;;;;;;5009372;28;20026;-68
2021/11/08 10:09:20;;;;;;;13.70;2.05;;;11.00;99.90;;;;;;5008300;28;20778;-68
2021/11/08 10:11:45;;;;;;;27.33;8.88;;;11.00;99.90;;;;;;5001112;28;20045;-68
2021/11/08 10:14:11;;;;;;;14.40;2.58;;;11.50;99.90;;;;;;5011219;28;20033;-67
2021/11/08 10:16:36;;;;;;;30.45;13.75;;;10.90;99.90;;;;;;5005586;28;20033;-68
2021/11/08 10:19:02;;;;;;;16.73;2.90;;;10.90;99.90;;;;;;5010149;28;20042;-68
2021/11/08 10:21:27;;;;;;;15.30;2.22;;;11.00;99.90;;;;;;5003283;28;20038;-68
2021/11/08 10:23:53;;;;;;;17.10;2.33;;;11.20;99.90;;;;;;5013307;28;20037;-69
2021/11/08 10:26:18;;;;;;;16.42;2.63;;;11.50;99.90;;;;;;5009779;28;20576;-68
2021/11/08 10:28:44;;;;;;;22.60;3.45;;;11.80;99.90;;;;;;5014836;28;20507;-68
2021/11/08 10:31:10;;;;;;;14.93;2.70;;;12.10;99.90;;;;;;5015872;28;20039;-68
2021/11/08 10:33:36;;;;;;;14.23;2.47;;;12.00;99.90;;;;;;5010074;28;20034;-68
2021/11/08 10:36:04;;;;;;;17.98;2.28;;;11.70;99.90;;;;;;5012330;28;20110;-69
2021/11/08 10:38:30;;;;;;;11.23;2.40;;;11.50;99.90;;;;;;5013751;28;20469;-69
2021/11/08 10:40:55;;;;;;;12.23;2.58;;;11.40;99.90;;;;;;5012867;28;20036;-69
2021/11/08 10:43:21;;;;;;;17.85;2.45;;;11.40;99.90;;;;;;5011879;28;20041;-69
2021/11/08 10:45:46;;;;;;;12.85;1.80;;;11.40;99.90;;;;;;5009613;28;20712;-69
2021/11/08 10:48:12;;;;;;;12.45;1.98;;;11.30;99.90;;;;;;4996157;28;20038;-68
2021/11/08 10:50:37;;;;;;;10.38;1.85;;;11.50;99.90;;;;;;5007847;28;20029;-69
2021/11/08 10:53:04;;;;;;;10.50;2.90;;;11.40;99.90;;;;;;5008695;28;20033;-69
2021/11/08 10:55:29;;;;;;;13.18;2.38;;;11.30;99.90;;;;;;5004221;28;20568;-69
2021/11/08 10:57:55;;;;;;;23.02;4.53;;;11.30;99.90;;;;;;5017432;28;20049;-69
2021/11/08 11:00:21;;;;;;;14.48;4.35;;;11.30;99.90;;;;;;5014487;28;20075;-68
2021/11/08 11:02:46;;;;;;;16.88;4.15;;;11.30;99.90;;;;;;5007211;28;20884;-68
2021/11/08 11:05:12;;;;;;;23.45;3.47;;;11.40;99.90;;;;;;5007946;28;20037;-67
2021/11/08 11:07:41;;;;;;;9.98;1.83;;;11.60;99.90;;;;;;5011201;28;20082;-69
2021/11/08 11:10:07;;;;;;;17.00;2.28;;;11.60;99.90;;;;;;5008758;28;20094;-69
2021/11/08 11:12:33;;;;;;;10.55;2.17;;;11.50;99.90;;;;;;5010846;28;20037;-68
2021/11/08 11:14:59;;;;;;;18.23;2.90;;;11.50;99.90;;;;;;4999428;28;20136;-68
2021/11/08 11:17:24;;;;;;;13.75;1.85;;;11.50;99.90;;;;;;5003321;28;20034;-68
2021/11/08 11:19:50;;;;;;;13.60;2.38;;;11.60;99.90;;;;;;5007105;28;20563;-68
2021/11/08 11:22:17;;;;;;;14.40;2.35;;;11.60;99.90;;;;;;5072022;28;20121;-68
2021/11/08 11:24:45;;;;;;;20.15;2.33;;;11.60;99.90;;;;;;5008650;28;20040;-68
2021/11/08 11:27:14;;;;;;;14.45;1.92;;;11.50;99.90;;;;;;5005964;28;20030;-68
2021/11/08 11:29:39;;;;;;;16.23;1.80;;;11.60;99.90;;;;;;5008469;28;20803;-67
2021/11/08 11:32:04;;;;;;;22.85;5.25;;;11.50;99.90;;;;;;5071916;28;20038;-67
2021/11/08 11:34:30;;;;;;;14.57;1.83;;;11.50;99.90;;;;;;5009532;28;20142;-67
2021/11/08 11:36:55;;;;;;;10.48;2.30;;;11.50;99.90;;;;;;5007371;28;20591;-68
2021/11/08 11:39:21;;;;;;;14.15;1.75;;;11.40;99.90;;;;;;5006054;28;20030;-68
2021/11/08 11:41:46;;;;;;;10.10;1.45;;;11.40;99.90;;;;;;5010713;28;20162;-68
2021/11/08 11:44:12;;;;;;;14.35;2.78;;;11.40;99.90;;;;;;5015409;28;20810;-68
2021/11/08 11:46:37;;;;;;;10.88;1.98;;;11.50;99.90;;;;;;5009594;28;20033;-68
2021/11/08 11:49:03;;;;;;;12.52;2.28;;;11.60;99.90;;;;;;5012837;28;20068;-68
2021/11/08 11:51:28;;;;;;;11.20;2.05;;;11.70;99.90;;;;;;5015676;28;20069;-68
2021/11/08 11:53:54;;;;;;;13.02;1.63;;;11.70;99.90;;;;;;5014989;28;20030;-68
2021/11/08 11:56:20;;;;;;;17.42;2.53;;;11.70;99.90;;;;;;5005107;28;20045;-68
2021/11/08 11:58:45;;;;;;;13.32;2.40;;;11.60;99.90;;;;;;5002822;28;20030;-68
2021/11/08 12:01:11;;;;;;;13.45;1.65;;;11.50;99.90;;;;;;5005699;28;20142;-68
2021/11/08 12:03:36;;;;;;;13.63;2.15;;;11.50;99.90;;;;;;5004318;28;20141;-68
2021/11/08 12:06:02;;;;;;;13.15;2.72;;;11.60;99.90;;;;;;5006468;28;20831;-69
2021/11/08 12:08:27;;;;;;;13.23;2.40;;;11.80;99.90;;;;;;5011366;28;20041;-69
2021/11/08 12:10:53;;;;;;;11.57;1.85;;;12.00;99.90;;;;;;5015358;28;20036;-69
2021/11/08 12:13:18;;;;;;;12.90;2.17;;;12.20;99.90;;;;;;5006645;28;20038;-69
2021/11/08 12:15:44;;;;;;;14.30;2.50;;;12.50;99.90;;;;;;5007773;28;20082;-69
2021/11/08 12:18:11;;;;;;;14.25;1.92;;;13.00;99.90;;;;;;5012902;28;20739;-69
2021/11/08 12:20:37;;;;;;;9.18;1.50;;;13.10;99.90;;;;;;5083087;28;20136;-68
2021/11/08 12:23:02;;;;;;;10.82;1.90;;;13.10;99.90;;;;;;5012637;28;20560;-69
2021/11/08 12:25:28;;;;;;;12.93;1.73;;;12.90;99.90;;;;;;5006340;28;20029;-69
2021/11/08 12:27:53;;;;;;;7.38;1.45;;;12.60;99.90;;;;;;5002154;28;20114;-69
2021/11/08 12:30:19;;;;;;;12.05;1.70;;;12.50;99.90;;;;;;4999925;28;20831;-69
2021/11/08 12:32:44;;;;;;;19.30;3.53;;;12.60;99.90;;;;;;5004800;28;20082;-69
2021/11/08 12:35:10;;;;;;;18.95;4.35;;;12.90;99.90;;;;;;5012551;28;20101;-69
2021/11/08 12:37:35;;;;;;;15.70;3.05;;;12.90;99.90;;;;;;5014179;28;20408;-69
2021/11/08 12:40:01;;;;;;;9.85;2.05;;;12.90;99.90;;;;;;5076515;28;20860;-70
2021/11/08 12:42:27;;;;;;;14.43;2.92;;;12.80;99.90;;;;;;5006302;28;20038;-69
2021/11/08 12:44:52;;;;;;;14.25;2.53;;;12.70;99.90;;;;;;5004930;28;20048;-69
2021/11/08 12:47:18;;;;;;;19.48;2.40;;;12.70;99.90;;;;;;5004861;28;20061;-69
2021/11/08 12:49:43;;;;;;;11.40;2.05;;;12.80;99.90;;;;;;5003813;28;20049;-69
2021/11/08 12:52:12;;;;;;;20.65;2.58;;;12.70;99.90;;;;;;5075920;28;20044;-70
2021/11/08 12:54:37;;;;;;;15.63;3.10;;;12.90;99.90;;;;;;5000267;28;20825;-69
2021/11/08 12:57:03;;;;;;;14.60;3.17;;;13.10;99.90;;;;;;5074261;28;20049;-69
2021/11/08 12:59:30;;;;;;;13.60;3.00;;;13.10;99.90;;;;;;5012540;28;20065;-68
2021/11/08 13:01:56;;;;;;;11.40;2.22;;;12.80;99.90;;;;;;5005423;28;20092;-68
2021/11/08 13:04:31;;;;;;;12.90;1.95;;;12.40;99.90;;;;;;5008986;28;20038;-69
2021/11/08 13:06:56;;;;;;;15.27;1.95;;;12.20;99.90;;;;;;4999993;28;20049;-69
2021/11/08 13:09:23;;;;;;;9.50;1.70;;;12.10;99.90;;;;;;5003515;28;20030;-68
2021/11/08 13:11:48;;;;;;;13.32;2.72;;;12.00;99.90;;;;;;5001951;28;20034;-69
2021/11/08 13:14:13;;;;;;;12.23;1.73;;;11.90;99.90;;;;;;4998548;28;20042;-69
2021/11/08 13:16:40;;;;;;;13.25;3.15;;;11.90;99.90;;;;;;5006139;28;20034;-70
2021/11/08 13:19:06;;;;;;;10.23;2.60;;;11.80;99.90;;;;;;5005518;28;20742;-69
2021/11/08 13:21:31;;;;;;;17.05;2.80;;;11.70;99.90;;;;;;5008996;28;20129;-69
2021/11/08 13:23:57;;;;;;;16.40;1.90;;;11.70;99.90;;;;;;5000857;28;20040;-69
2021/11/08 13:26:23;;;;;;;16.20;5.63;;;11.70;99.90;;;;;;5001432;28;20108;-70
2021/11/08 13:28:48;;;;;;;16.63;2.75;;;11.80;99.90;;;;;;5008711;28;20036;-70
2021/11/08 13:31:15;;;;;;;12.85;2.20;;;11.80;99.90;;;;;;5011963;28;20029;-69
2021/11/08 13:33:41;;;;;;;16.75;2.53;;;11.90;99.90;;;;;;5014331;28;20556;-70
2021/11/08 13:36:06;;;;;;;11.00;2.00;;;12.10;99.90;;;;;;5011687;28;20025;-70
2021/11/08 13:38:32;;;;;;;12.18;1.98;;;12.40;99.90;;;;;;5011396;28;20033;-70
2021/11/08 13:40:58;;;;;;;12.32;1.85;;;12.80;99.90;;;;;;5014131;28;20040;-70
2021/11/08 13:43:23;;;;;;;12.07;2.67;;;13.00;99.90;;;;;;5012213;28;20615;-69
2021/11/08 13:45:48;;;;;;;10.82;1.75;;;13.10;99.90;;;;;;5007879;28;20102;-69
2021/11/08 13:48:14;;;;;;;12.82;2.30;;;13.00;99.90;;;;;;5007283;28;20628;-68
2021/11/08 13:50:41;;;;;;;10.60;1.60;;;12.70;99.90;;;;;;5009783;28;20037;-68
2021/11/08 13:53:06;;;;;;;15.52;1.88;;;12.40;99.90;;;;;;5011468;28;20042;-68
2021/11/08 13:55:32;;;;;;;9.80;1.55;;;12.20;99.90;;;;;;5008533;28;20056;-69
2021/11/08 13:57:57;;;;;;;8.68;1.90;;;12.00;99.90;;;;;;5010465;28;20045;-69
2021/11/08 14:00:23;;;;;;;12.77;1.60;;;11.90;99.90;;;;;;5014128;28;20037;-72
2021/11/08 14:02:49;;;;;;;8.65;1.60;;;11.80;99.90;;;;;;5006210;28;20069;-68
2021/11/08 14:05:14;;;;;;;17.92;2.13;;;11.80;99.90;;;;;;5007313;28;20509;-70
2021/11/08 14:07:40;;;;;;;14.88;2.53;;;11.80;99.90;;;;;;5009283;28;20029;-70
2021/11/08 14:10:05;;;;;;;9.73;1.70;;;11.90;99.90;;;;;;5012131;28;20030;-69
2021/11/08 14:12:31;;;;;;;12.70;2.33;;;11.90;99.90;;;;;;5002178;28;20036;-69